Time;durP1;ratioP1;P1;durP2;ratioP2;P2;SDS_P1;SDS_P2;PMS_P1;PMS_P2;Temp;Humidity;BMP_temperature;BMP_pressure;BME280_temperature;BME280_humidity;BME280_pressure;Samples;Min_cycle;Max_cycle;Signal;HPM_P1;HPM_P2
2023/08/06 00:01:48;;;;;;;4.18;3.38;;;20.80;64.20;;;;;;5005408;28;118290;-79
2023/08/06 00:04:15;;;;;;;4.95;4.05;;;20.80;64.50;;;;;;5007263;28;114412;-79
2023/08/06 00:06:42;;;;;;;4.25;3.03;;;20.80;65.20;;;;;;5007856;28;114313;-78
2023/08/06 00:09:10;;;;;;;3.65;2.58;;;20.80;64.80;;;;;;5006634;28;115047;-79
2023/08/06 00:11:37;;;;;;;3.30;2.28;;;20.80;64.60;;;;;;4989437;28;117385;-77
2023/08/06 00:14:04;;;;;;;3.03;2.22;;;20.80;64.00;;;;;;5006345;28;114130;-78
2023/08/06 00:16:31;;;;;;;4.38;2.75;;;20.80;64.00;;;;;;5007419;28;115117;-79
2023/08/06 00:18:58;;;;;;;3.63;2.95;;;20.90;64.60;;;;;;5006095;28;114993;-77
2023/08/06 00:21:25;;;;;;;3.20;2.30;;;20.90;64.70;;;;;;5005325;28;114767;-77
2023/08/06 00:23:52;;;;;;;3.72;3.15;;;20.80;64.00;;;;;;5005985;28;114312;-77
2023/08/06 00:26:19;;;;;;;2.90;2.05;;;20.80;65.30;;;;;;5007640;28;114093;-77
2023/08/06 00:28:46;;;;;;;2.63;2.00;;;20.70;64.40;;;;;;4971722;28;114966;-77
2023/08/06 00:31:13;;;;;;;2.78;2.05;;;20.80;64.10;;;;;;4988768;28;114615;-78
2023/08/06 00:33:41;;;;;;;3.13;2.35;;;20.80;64.10;;;;;;5005979;28;114360;-77
2023/08/06 00:36:08;;;;;;;4.32;3.30;;;20.80;64.40;;;;;;5005978;28;114373;-78
2023/08/06 00:38:35;;;;;;;2.33;1.75;;;20.80;65.20;;;;;;5004926;28;115199;-78
2023/08/06 00:41:02;;;;;;;3.67;2.47;;;20.80;64.00;;;;;;5005216;28;115096;-77
2023/08/06 00:43:29;;;;;;;3.15;2.58;;;20.80;64.60;;;;;;5006602;28;114265;-77
2023/08/06 00:45:56;;;;;;;3.53;2.15;;;20.80;64.50;;;;;;5007039;28;114374;-78
2023/08/06 00:48:23;;;;;;;3.65;2.60;;;20.80;63.90;;;;;;5004695;28;115163;-77
2023/08/06 00:50:50;;;;;;;2.63;2.08;;;20.80;64.50;;;;;;5004883;28;114577;-77
2023/08/06 00:53:17;;;;;;;3.47;1.65;;;20.80;64.00;;;;;;4989270;28;114511;-77
2023/08/06 00:55:44;;;;;;;3.40;1.80;;;20.90;63.80;;;;;;4989073;28;114052;-77
2023/08/06 00:58:12;;;;;;;3.15;1.95;;;20.90;63.60;;;;;;5004674;28;115128;-77
2023/08/06 01:00:40;;;;;;;2.33;1.70;;;20.90;64.00;;;;;;5004799;28;114586;-78
2023/08/06 01:03:07;;;;;;;3.38;1.65;;;20.90;63.60;;;;;;5006367;28;114447;-77
2023/08/06 01:05:34;;;;;;;2.72;1.80;;;20.90;63.40;;;;;;5005571;28;114410;-77
2023/08/06 01:08:13;;;;;;;4.07;2.42;;;20.90;63.50;;;;;;4987620;28;114861;-78
2023/08/06 01:10:40;;;;;;;2.20;1.70;;;20.90;63.70;;;;;;5005796;28;114933;-78
2023/08/06 01:13:29;;;;;;;2.55;1.80;;;20.90;63.80;;;;;;5005263;28;114284;-78
2023/08/06 01:15:57;;;;;;;2.25;1.50;;;20.90;63.50;;;;;;4972665;28;114102;-78
2023/08/06 01:18:25;;;;;;;3.63;2.10;;;20.80;63.90;;;;;;5004231;28;117164;-78
2023/08/06 01:20:52;;;;;;;3.55;1.65;;;20.80;64.10;;;;;;5005473;28;114730;-78
2023/08/06 01:23:19;;;;;;;2.42;1.60;;;20.80;63.70;;;;;;4988620;28;114326;-78
2023/08/06 01:25:53;;;;;;;2.33;1.42;;;20.80;63.60;;;;;;5006208;28;114243;-78
2023/08/06 01:28:47;;;;;;;2.03;1.33;;;20.80;63.70;;;;;;5005989;28;114833;-78
2023/08/06 01:31:31;;;;;;;3.67;1.70;;;20.80;63.50;;;;;;5012324;28;114984;-79
2023/08/06 01:33:59;;;;;;;1.95;1.50;;;20.80;64.30;;;;;;5010611;28;114275;-78
2023/08/06 01:36:26;;;;;;;3.70;1.60;;;20.70;64.20;;;;;;5005639;28;114708;-78
2023/08/06 01:38:53;;;;;;;1.92;1.25;;;20.70;64.60;;;;;;4987891;28;114916;-78
2023/08/06 01:41:20;;;;;;;2.15;1.13;;;20.70;63.90;;;;;;4988009;28;114801;-78
2023/08/06 01:43:47;;;;;;;2.90;1.90;;;20.70;63.90;;;;;;4989681;28;114165;-78
2023/08/06 01:46:15;;;;;;;2.58;1.50;;;20.70;64.50;;;;;;5007835;28;114219;-78
2023/08/06 01:48:43;;;;;;;1.85;1.10;;;20.70;64.20;;;;;;5005743;28;114905;-78
2023/08/06 01:51:10;;;;;;;1.83;1.15;;;20.70;63.90;;;;;;5005928;28;115852;-78
2023/08/06 01:53:38;;;;;;;3.03;1.50;;;20.70;63.80;;;;;;5005343;28;114291;-79
2023/08/06 01:56:05;;;;;;;2.78;1.67;;;20.70;64.20;;;;;;5005463;28;114467;-78
2023/08/06 01:58:32;;;;;;;2.10;1.42;;;20.70;64.50;;;;;;5004043;28;114905;-78
2023/08/06 02:00:59;;;;;;;1.75;1.10;;;20.70;64.00;;;;;;4971021;28;117784;-78
2023/08/06 02:03:26;;;;;;;3.20;1.75;;;20.70;63.90;;;;;;4988203;28;114452;-78
2023/08/06 02:05:53;;;;;;;2.00;1.23;;;20.70;64.50;;;;;;5005281;28;114337;-79
2023/08/06 02:08:21;;;;;;;2.13;1.10;;;20.70;64.00;;;;;;5004144;28;116179;-78
2023/08/06 02:10:48;;;;;;;1.98;1.10;;;20.70;63.80;;;;;;5004013;28;114567;-78
2023/08/06 02:13:15;;;;;;;1.80;1.20;;;20.70;63.70;;;;;;5004333;28;114383;-77
2023/08/06 02:15:43;;;;;;;4.05;1.27;;;20.70;64.00;;;;;;5005662;28;114464;-78
2023/08/06 02:18:11;;;;;;;2.47;1.10;;;20.80;64.00;;;;;;5004286;28;115404;-79
2023/08/06 02:20:38;;;;;;;1.73;1.02;;;20.70;64.00;;;;;;5003877;28;115826;-78
2023/08/06 02:23:05;;;;;;;2.53;1.70;;;20.70;64.20;;;;;;5005478;28;114076;-79
2023/08/06 02:25:32;;;;;;;2.40;1.10;;;20.70;64.70;;;;;;5004554;28;114642;-79
2023/08/06 02:27:59;;;;;;;1.88;1.08;;;20.70;63.80;;;;;;5004872;28;116148;-79
2023/08/06 02:30:26;;;;;;;1.40;0.88;;;20.80;64.10;;;;;;5005163;28;114567;-79
2023/08/06 02:32:53;;;;;;;1.55;1.00;;;20.70;63.60;;;;;;4988204;28;114117;-79
2023/08/06 02:35:20;;;;;;;1.90;1.08;;;20.80;63.80;;;;;;5004974;28;114417;-77
2023/08/06 02:37:47;;;;;;;1.88;1.23;;;20.70;63.80;;;;;;5003323;28;114947;-78
2023/08/06 02:40:14;;;;;;;2.72;1.10;;;20.80;64.10;;;;;;5008633;28;115161;-78
2023/08/06 02:42:42;;;;;;;2.47;1.27;;;20.80;63.80;;;;;;5007912;28;114236;-81
2023/08/06 02:45:09;;;;;;;2.28;1.45;;;20.80;63.80;;;;;;5007989;28;114616;-79
2023/08/06 02:47:36;;;;;;;1.77;1.00;;;20.80;64.00;;;;;;4989978;28;118526;-79
2023/08/06 02:50:04;;;;;;;2.60;1.15;;;20.80;63.50;;;;;;4990638;28;115064;-79
2023/08/06 02:52:31;;;;;;;3.10;1.08;;;20.80;63.50;;;;;;5007855;28;114208;-79
2023/08/06 02:55:00;;;;;;;1.75;0.90;;;20.80;63.80;;;;;;5007887;28;114380;-78
2023/08/06 02:57:29;;;;;;;2.85;1.58;;;20.80;63.30;;;;;;5006764;28;114943;-78
2023/08/06 02:59:56;;;;;;;2.05;0.88;;;20.80;64.00;;;;;;5007749;28;114729;-78
2023/08/06 03:02:24;;;;;;;1.52;0.80;;;20.80;63.60;;;;;;5007504;28;114259;-77
2023/08/06 03:04:58;;;;;;;2.20;1.52;;;20.80;63.30;;;;;;4975480;28;114282;-78
2023/08/06 03:07:29;;;;;;;1.15;0.85;;;20.80;64.40;;;;;;4990426;28;116394;-79
2023/08/06 03:10:04;;;;;;;1.83;0.85;;;20.70;63.60;;;;;;5006557;28;114681;-78
2023/08/06 03:12:31;;;;;;;2.40;1.15;;;20.80;63.30;;;;;;5006383;28;114395;-78
2023/08/06 03:15:00;;;;;;;1.48;0.80;;;20.80;63.70;;;;;;5007166;28;114361;-78
2023/08/06 03:17:27;;;;;;;1.58;0.90;;;20.80;63.30;;;;;;4989982;28;114946;-78
2023/08/06 03:19:54;;;;;;;1.42;0.75;;;20.80;63.50;;;;;;5006226;28;114682;-78
2023/08/06 03:22:23;;;;;;;1.60;0.80;;;20.80;63.20;;;;;;5007163;28;114672;-78
2023/08/06 03:24:51;;;;;;;1.90;1.08;;;20.80;63.10;;;;;;5007616;28;114267;-79
2023/08/06 03:27:21;;;;;;;1.98;1.10;;;20.80;63.40;;;;;;4990072;28;115494;-79
2023/08/06 03:29:50;;;;;;;1.48;0.80;;;20.80;63.20;;;;;;4990391;28;114900;-79
2023/08/06 03:32:20;;;;;;;3.35;2.13;;;20.80;63.00;;;;;;5007371;28;114212;-79
2023/08/06 03:34:47;;;;;;;1.38;0.88;;;20.80;63.60;;;;;;5008608;28;114609;-79
2023/08/06 03:37:15;;;;;;;2.13;1.25;;;20.80;63.00;;;;;;5005802;28;114893;-79
2023/08/06 03:39:45;;;;;;;3.45;2.33;;;20.80;62.90;;;;;;4990605;28;114201;-78
2023/08/06 03:42:12;;;;;;;2.15;1.52;;;20.80;63.70;;;;;;5006812;28;114557;-78
2023/08/06 03:44:39;;;;;;;1.40;0.90;;;20.80;63.30;;;;;;4990261;28;114454;-77
2023/08/06 03:47:08;;;;;;;2.72;1.08;;;20.80;63.00;;;;;;4989804;28;114971;-78
2023/08/06 03:49:36;;;;;;;2.10;0.80;;;20.80;63.20;;;;;;5005489;28;114848;-78
2023/08/06 03:52:05;;;;;;;3.13;1.08;;;20.80;63.10;;;;;;5007120;28;114363;-78
2023/08/06 03:54:32;;;;;;;1.85;1.00;;;20.70;63.60;;;;;;5007144;28;114206;-77
2023/08/06 03:56:59;;;;;;;1.80;0.80;;;20.70;63.50;;;;;;4989288;28;115494;-77
2023/08/06 03:59:26;;;;;;;2.42;0.90;;;20.70;63.60;;;;;;5005835;28;114530;-77
2023/08/06 04:01:53;;;;;;;1.70;0.82;;;20.70;64.30;;;;;;5005925;28;114071;-78
2023/08/06 04:04:21;;;;;;;1.73;0.93;;;20.70;64.20;;;;;;5006149;28;114179;-79
2023/08/06 04:06:48;;;;;;;2.03;0.90;;;20.70;63.40;;;;;;4989143;28;115359;-79
2023/08/06 04:09:15;;;;;;;1.45;0.80;;;20.70;63.30;;;;;;5006958;28;114741;-78
2023/08/06 04:11:42;;;;;;;1.58;1.00;;;20.70;63.10;;;;;;4989975;28;114426;-78
2023/08/06 04:14:09;;;;;;;2.25;1.00;;;20.70;63.20;;;;;;5007906;28;114101;-78
2023/08/06 04:16:36;;;;;;;1.70;0.70;;;20.70;63.30;;;;;;5007845;28;116159;-79
2023/08/06 04:19:03;;;;;;;0.93;0.63;;;20.60;63.30;;;;;;5008314;28;114719;-79
2023/08/06 04:21:30;;;;;;;0.98;0.63;;;20.60;63.50;;;;;;5006575;28;114155;-77
2023/08/06 04:23:58;;;;;;;1.55;0.82;;;20.60;63.40;;;;;;5007962;28;114648;-78
2023/08/06 04:26:25;;;;;;;1.48;0.70;;;20.50;63.40;;;;;;5006624;28;114913;-79
2023/08/06 04:28:52;;;;;;;1.77;0.73;;;20.50;63.50;;;;;;5005906;28;114151;-77
2023/08/06 04:31:20;;;;;;;1.70;0.60;;;20.50;63.50;;;;;;5008307;28;114228;-77
2023/08/06 04:33:47;;;;;;;2.05;0.60;;;20.50;63.50;;;;;;5007620;28;114406;-77
2023/08/06 04:36:16;;;;;;;1.65;0.60;;;20.50;63.50;;;;;;5005764;28;116283;-77
2023/08/06 04:38:47;;;;;;;1.52;0.60;;;20.50;63.40;;;;;;5005335;28;114750;-77
2023/08/06 04:41:15;;;;;;;1.13;0.60;;;20.40;63.40;;;;;;4990296;28;114139;-78
2023/08/06 04:43:42;;;;;;;1.55;0.73;;;20.40;63.40;;;;;;5006878;28;114317;-78
2023/08/06 04:46:09;;;;;;;1.40;0.50;;;20.40;63.30;;;;;;4988728;28;114927;-78
2023/08/06 04:48:36;;;;;;;1.20;0.50;;;20.50;63.30;;;;;;5006144;28;114647;-77
2023/08/06 04:51:03;;;;;;;1.45;0.50;;;20.50;63.20;;;;;;5004828;28;114691;-77
2023/08/06 04:53:30;;;;;;;1.58;0.38;;;20.40;63.10;;;;;;4989537;28;114230;-77
2023/08/06 04:55:57;;;;;;;0.88;0.50;;;20.30;63.50;;;;;;5005964;28;115119;-78
2023/08/06 04:58:24;;;;;;;1.52;0.50;;;20.30;63.50;;;;;;5004085;28;118029;-78
2023/08/06 05:00:52;;;;;;;2.00;0.50;;;20.30;63.50;;;;;;5004780;28;114582;-78
2023/08/06 05:03:19;;;;;;;1.27;0.60;;;20.30;63.60;;;;;;5005624;28;114371;-78
2023/08/06 05:05:46;;;;;;;1.13;0.57;;;20.30;63.50;;;;;;4988640;28;115730;-78
2023/08/06 05:08:16;;;;;;;1.42;0.50;;;20.30;63.40;;;;;;5006195;28;114337;-78
2023/08/06 05:10:44;;;;;;;1.42;0.57;;;20.30;63.40;;;;;;5005447;28;114261;-78
2023/08/06 05:13:11;;;;;;;0.90;0.50;;;20.30;63.30;;;;;;5007109;28;114214;-78
2023/08/06 05:15:42;;;;;;;1.08;0.55;;;20.30;63.20;;;;;;5005571;28;115190;-78
2023/08/06 05:18:09;;;;;;;1.20;0.50;;;20.40;63.20;;;;;;5004937;28;114876;-77
2023/08/06 05:20:37;;;;;;;0.43;0.40;;;20.30;63.30;;;;;;5005510;28;114233;-77
2023/08/06 05:23:04;;;;;;;0.82;0.30;;;20.30;63.20;;;;;;5005797;28;114132;-78
2023/08/06 05:25:31;;;;;;;1.23;0.60;;;20.30;63.20;;;;;;5004614;28;115079;-78
2023/08/06 05:27:59;;;;;;;1.33;0.68;;;20.30;63.20;;;;;;5004000;28;117391;-78
2023/08/06 05:30:27;;;;;;;2.60;0.50;;;20.40;63.10;;;;;;5006749;28;114306;-80
2023/08/06 05:32:55;;;;;;;0.90;0.50;;;20.40;63.00;;;;;;5006737;28;114225;-77
2023/08/06 05:35:22;;;;;;;1.42;0.60;;;20.30;63.10;;;;;;5004441;28;116062;-77
2023/08/06 05:37:52;;;;;;;0.85;0.50;;;20.30;63.10;;;;;;5003603;28;116407;-79
2023/08/06 05:40:20;;;;;;;0.77;0.50;;;20.30;63.10;;;;;;5004741;28;114427;-78
2023/08/06 05:42:47;;;;;;;1.50;0.70;;;20.30;63.30;;;;;;5006506;28;114032;-79
2023/08/06 05:45:14;;;;;;;2.53;1.67;;;20.30;63.30;;;;;;5004089;28;117781;-78
2023/08/06 05:47:41;;;;;;;1.33;0.70;;;20.30;63.30;;;;;;5005460;28;114681;-79
2023/08/06 05:50:08;;;;;;;1.50;0.70;;;20.30;63.20;;;;;;5006286;28;114366;-78
2023/08/06 05:52:36;;;;;;;2.35;1.40;;;20.30;63.00;;;;;;5005333;28;114360;-78
2023/08/06 05:55:03;;;;;;;1.20;0.70;;;20.30;62.60;;;;;;5003935;28;115000;-79
2023/08/06 05:57:30;;;;;;;0.98;0.70;;;20.20;62.70;;;;;;5005331;28;114669;-77
2023/08/06 05:59:57;;;;;;;3.10;0.70;;;20.20;62.50;;;;;;5006024;28;114227;-78
2023/08/06 06:02:24;;;;;;;1.17;0.63;;;20.00;63.10;;;;;;5005991;28;114298;-79
2023/08/06 06:04:51;;;;;;;2.50;0.88;;;19.80;63.30;;;;;;5004297;28;114914;-77
2023/08/06 06:07:18;;;;;;;3.22;2.42;;;19.80;63.40;;;;;;5004768;28;114619;-78
2023/08/06 06:09:45;;;;;;;1.92;1.05;;;19.80;62.80;;;;;;5005939;28;114357;-78
2023/08/06 06:12:12;;;;;;;2.97;1.77;;;19.60;63.20;;;;;;5005160;28;114510;-78
2023/08/06 06:14:40;;;;;;;0.88;0.60;;;19.50;63.50;;;;;;5008830;28;114959;-79
2023/08/06 06:17:07;;;;;;;1.20;0.73;;;19.40;64.30;;;;;;5007426;28;114741;-78
2023/08/06 06:19:34;;;;;;;1.73;0.70;;;19.40;64.40;;;;;;5009451;28;114675;-78
2023/08/06 06:22:01;;;;;;;1.27;0.77;;;19.50;64.20;;;;;;5009435;28;114125;-79
2023/08/06 06:24:28;;;;;;;1.13;0.68;;;19.60;64.10;;;;;;5008280;28;114922;-79
2023/08/06 06:26:55;;;;;;;1.02;0.77;;;19.70;64.00;;;;;;5007252;28;114808;-79
2023/08/06 06:29:22;;;;;;;0.75;0.52;;;19.70;63.40;;;;;;5007543;28;114326;-79
2023/08/06 06:31:49;;;;;;;1.55;0.93;;;19.80;63.00;;;;;;5008110;28;114412;-79
2023/08/06 06:34:16;;;;;;;0.95;0.60;;;19.80;62.50;;;;;;5007086;28;114972;-78
2023/08/06 06:36:43;;;;;;;1.10;0.60;;;19.80;63.10;;;;;;5006286;28;114681;-78
2023/08/06 06:39:10;;;;;;;1.15;0.75;;;19.80;63.40;;;;;;5008672;28;114099;-78
2023/08/06 06:41:37;;;;;;;1.33;0.85;;;19.80;63.00;;;;;;5009112;28;114206;-78
2023/08/06 06:44:14;;;;;;;1.15;0.70;;;19.80;62.90;;;;;;5007031;28;114836;-79
2023/08/06 06:46:41;;;;;;;1.40;0.60;;;19.90;62.90;;;;;;5008147;28;114590;-78
2023/08/06 06:49:08;;;;;;;0.85;0.50;;;20.00;62.90;;;;;;5007978;28;114137;-78
2023/08/06 06:51:37;;;;;;;2.35;0.70;;;20.00;62.30;;;;;;5010483;28;114398;-78
2023/08/06 06:54:06;;;;;;;1.52;0.90;;;20.00;62.60;;;;;;5009190;28;117192;-79
2023/08/06 06:56:33;;;;;;;1.00;0.70;;;20.10;62.40;;;;;;5006654;28;114648;-78
2023/08/06 06:59:03;;;;;;;1.88;0.98;;;20.10;62.30;;;;;;5008400;28;114275;-78
2023/08/06 07:01:30;;;;;;;1.30;0.80;;;20.20;61.90;;;;;;5009009;28;114233;-78
2023/08/06 07:03:57;;;;;;;2.55;1.05;;;20.10;61.40;;;;;;5007043;28;114989;-78
2023/08/06 07:06:25;;;;;;;2.63;1.40;;;20.10;61.70;;;;;;5008291;28;114706;-78
2023/08/06 07:08:52;;;;;;;2.45;1.30;;;20.10;62.10;;;;;;5007287;28;114269;-79
2023/08/06 07:11:19;;;;;;;2.08;1.23;;;20.10;62.10;;;;;;5009160;28;114212;-78
2023/08/06 07:13:46;;;;;;;2.28;1.33;;;20.10;61.80;;;;;;5007275;28;117419;-77
2023/08/06 07:16:13;;;;;;;2.42;1.48;;;20.20;61.90;;;;;;5007657;28;114707;-78
2023/08/06 07:18:40;;;;;;;2.80;1.35;;;20.20;61.80;;;;;;5009099;28;114181;-77
2023/08/06 07:21:07;;;;;;;4.50;1.15;;;20.20;61.70;;;;;;5008946;28;114091;-78
2023/08/06 07:23:34;;;;;;;2.40;1.08;;;20.20;61.30;;;;;;5005629;28;115893;-77
2023/08/06 07:26:01;;;;;;;2.88;1.35;;;20.20;61.40;;;;;;5007240;28;114704;-78
2023/08/06 07:28:28;;;;;;;2.72;1.50;;;20.10;61.60;;;;;;4990472;28;114357;-78
2023/08/06 07:30:55;;;;;;;2.60;1.35;;;20.10;61.70;;;;;;5007206;28;114256;-77
2023/08/06 07:33:22;;;;;;;2.05;0.98;;;20.10;61.60;;;;;;5006199;28;115236;-79
2023/08/06 07:35:49;;;;;;;1.83;0.90;;;20.10;61.40;;;;;;5006887;28;115779;-77
2023/08/06 07:38:16;;;;;;;2.17;1.00;;;20.20;61.20;;;;;;5007038;28;114349;-78
2023/08/06 07:40:44;;;;;;;2.50;1.02;;;20.10;61.50;;;;;;5007989;28;114230;-78
2023/08/06 07:43:11;;;;;;;2.30;1.13;;;20.20;61.00;;;;;;5006513;28;115156;-78
2023/08/06 07:45:39;;;;;;;2.90;1.25;;;20.10;61.40;;;;;;5006990;28;114617;-77
2023/08/06 07:48:06;;;;;;;2.90;1.40;;;20.10;61.10;;;;;;5006726;28;114496;-78
2023/08/06 07:50:33;;;;;;;3.13;0.90;;;20.00;61.40;;;;;;5008013;28;114464;-78
2023/08/06 07:53:00;;;;;;;3.42;1.20;;;20.10;61.20;;;;;;5006984;28;115252;-78
2023/08/06 07:55:27;;;;;;;3.03;1.20;;;20.00;61.50;;;;;;5005900;28;114660;-79
2023/08/06 07:57:54;;;;;;;2.63;1.17;;;20.00;61.50;;;;;;5007809;28;114381;-79
2023/08/06 08:00:21;;;;;;;2.17;0.80;;;20.00;61.50;;;;;;5008071;28;114313;-79
2023/08/06 08:02:48;;;;;;;2.47;1.30;;;20.10;60.90;;;;;;5006165;28;115297;-78
2023/08/06 08:05:16;;;;;;;2.47;1.40;;;20.10;61.10;;;;;;5004689;28;114846;-78
2023/08/06 08:07:44;;;;;;;2.75;1.30;;;20.00;61.20;;;;;;5007213;28;114194;-80
2023/08/06 08:10:11;;;;;;;2.72;1.30;;;20.10;61.20;;;;;;5008531;28;114342;-78
2023/08/06 08:12:38;;;;;;;3.42;1.80;;;20.00;60.90;;;;;;5006900;28;114885;-78
2023/08/06 08:15:06;;;;;;;2.42;1.25;;;20.10;61.20;;;;;;5005490;28;114579;-79
2023/08/06 08:17:34;;;;;;;3.38;2.22;;;20.10;60.90;;;;;;5007635;28;114037;-79
2023/08/06 08:20:02;;;;;;;3.03;1.42;;;20.10;61.20;;;;;;4989880;28;114254;-78
2023/08/06 08:22:29;;;;;;;2.10;1.30;;;20.10;60.60;;;;;;5005199;28;114932;-78
2023/08/06 08:24:56;;;;;;;3.38;2.08;;;20.10;60.50;;;;;;5006921;28;114648;-78
2023/08/06 08:27:23;;;;;;;4.25;2.38;;;20.10;61.00;;;;;;5006032;28;114055;-78
2023/08/06 08:29:50;;;;;;;3.80;2.17;;;20.10;60.90;;;;;;5007309;28;114563;-78
2023/08/06 08:32:17;;;;;;;3.00;1.85;;;20.10;60.70;;;;;;5005757;28;115508;-79
2023/08/06 08:34:44;;;;;;;3.83;2.15;;;20.10;60.60;;;;;;5006315;28;114763;-77
2023/08/06 08:37:13;;;;;;;3.80;2.45;;;20.10;60.70;;;;;;5005203;28;114176;-78
2023/08/06 08:39:39;;;;;;;3.35;1.77;;;20.00;60.90;;;;;;5006086;28;114255;-80
2023/08/06 08:42:07;;;;;;;1.95;0.93;;;20.10;60.50;;;;;;5004742;28;114940;-78
2023/08/06 08:44:36;;;;;;;3.60;2.15;;;20.10;60.30;;;;;;5004945;28;114709;-80
2023/08/06 08:47:03;;;;;;;3.33;1.63;;;20.10;60.50;;;;;;5005883;28;114351;-80
2023/08/06 08:49:30;;;;;;;2.85;1.73;;;20.00;60.30;;;;;;5006012;28;114362;-78
2023/08/06 08:51:58;;;;;;;4.15;2.30;;;20.00;60.50;;;;;;5004846;28;117731;-79
2023/08/06 08:54:25;;;;;;;1.38;0.68;;;19.90;60.80;;;;;;4990965;28;117443;-79
2023/08/06 08:56:52;;;;;;;4.38;2.53;;;19.90;60.50;;;;;;5006393;28;114218;-79
2023/08/06 08:59:19;;;;;;;2.42;1.13;;;19.80;61.00;;;;;;4988732;28;114645;-79
2023/08/06 09:01:50;;;;;;;3.75;2.35;;;19.80;60.70;;;;;;5005593;28;116146;-78
2023/08/06 09:04:17;;;;;;;3.97;2.67;;;19.80;60.90;;;;;;5004562;28;114602;-78
2023/08/06 09:06:47;;;;;;;3.25;1.88;;;19.80;60.90;;;;;;4989162;28;114323;-78
2023/08/06 09:09:17;;;;;;;4.28;2.40;;;19.80;60.70;;;;;;5006716;28;114191;-79
2023/08/06 09:11:44;;;;;;;3.08;1.77;;;19.80;60.70;;;;;;5004383;28;118098;-78
2023/08/06 09:14:11;;;;;;;3.35;1.80;;;19.90;60.80;;;;;;5004933;28;114483;-79
2023/08/06 09:16:39;;;;;;;1.92;0.93;;;19.80;60.80;;;;;;5005173;28;114191;-78
2023/08/06 09:19:13;;;;;;;3.85;1.90;;;19.90;60.60;;;;;;5006547;28;114646;-78
2023/08/06 09:21:40;;;;;;;2.92;1.52;;;19.90;60.70;;;;;;5005248;28;115362;-78
2023/08/06 09:24:11;;;;;;;1.98;1.17;;;19.90;60.70;;;;;;5003819;28;116299;-80
2023/08/06 09:26:43;;;;;;;3.78;2.17;;;19.90;60.40;;;;;;5006449;28;114481;-79
2023/08/06 09:29:14;;;;;;;2.65;1.23;;;19.90;60.80;;;;;;4988756;28;114392;-78
2023/08/06 09:31:44;;;;;;;3.30;1.80;;;19.90;60.40;;;;;;5005572;28;114798;-78
2023/08/06 09:34:18;;;;;;;2.42;1.05;;;19.90;60.60;;;;;;5005371;28;114692;-80
2023/08/06 09:36:55;;;;;;;2.50;1.30;;;20.10;60.40;;;;;;5004888;28;114428;-78
2023/08/06 09:39:32;;;;;;;3.53;1.73;;;20.00;60.30;;;;;;5005467;28;114400;-79
2023/08/06 09:42:01;;;;;;;3.22;1.55;;;19.90;60.50;;;;;;5005271;28;115463;-78
2023/08/06 09:44:29;;;;;;;3.15;1.48;;;19.80;60.70;;;;;;5003792;28;114775;-76
2023/08/06 09:47:03;;;;;;;2.28;1.25;;;19.90;60.70;;;;;;5004980;28;114212;-77
2023/08/06 09:49:33;;;;;;;2.55;1.30;;;19.90;60.60;;;;;;5005150;28;114185;-78
2023/08/06 09:52:00;;;;;;;3.38;1.35;;;19.90;60.50;;;;;;5004998;28;114802;-79
2023/08/06 09:54:30;;;;;;;2.80;1.48;;;19.90;60.60;;;;;;5005202;28;114869;-81
2023/08/06 09:56:57;;;;;;;2.97;1.50;;;19.80;60.70;;;;;;5004524;28;114838;-79
2023/08/06 09:59:25;;;;;;;2.30;0.73;;;19.90;60.70;;;;;;5006018;28;114303;-78
2023/08/06 10:01:53;;;;;;;3.50;1.60;;;19.90;60.20;;;;;;5005190;28;114918;-79
2023/08/06 10:04:20;;;;;;;2.67;1.30;;;19.80;60.60;;;;;;5004679;28;114717;-77
2023/08/06 10:06:52;;;;;;;3.17;1.80;;;19.80;60.70;;;;;;5006658;28;115244;-79
2023/08/06 10:09:20;;;;;;;3.92;2.20;;;19.80;60.80;;;;;;5005233;28;114685;-79
2023/08/06 10:11:49;;;;;;;2.38;1.23;;;19.80;60.90;;;;;;5003389;28;114289;-78
2023/08/06 10:14:36;;;;;;;2.80;1.25;;;19.80;60.60;;;;;;5003941;28;114631;-81
2023/08/06 10:17:04;;;;;;;3.10;1.25;;;19.80;60.60;;;;;;5004885;28;114186;-78
2023/08/06 10:19:31;;;;;;;3.72;1.70;;;19.70;60.60;;;;;;5005239;28;114225;-78
2023/08/06 10:22:11;;;;;;;1.40;0.68;;;19.70;61.10;;;;;;5005159;28;115032;-79
2023/08/06 10:24:54;;;;;;;3.30;1.77;;;19.80;60.50;;;;;;5005157;28;114476;-78
2023/08/06 10:27:32;;;;;;;3.03;1.40;;;19.80;60.50;;;;;;5005654;28;114254;-80
2023/08/06 10:30:31;;;;;;;3.45;1.63;;;19.70;60.80;;;;;;5006244;28;114300;-77
2023/08/06 10:33:02;;;;;;;3.15;1.65;;;19.80;60.80;;;;;;5003513;28;115066;-78
2023/08/06 10:35:45;;;;;;;2.97;1.25;;;19.70;61.10;;;;;;5004519;28;114649;-78
2023/08/06 10:38:21;;;;;;;2.53;1.27;;;19.80;60.80;;;;;;5005929;28;114140;-78
2023/08/06 10:40:55;;;;;;;2.88;1.48;;;19.80;60.50;;;;;;5004749;28;114293;-77
2023/08/06 10:43:27;;;;;;;4.33;1.67;;;19.80;60.80;;;;;;5004703;28;115473;-77
2023/08/06 10:45:54;;;;;;;3.25;1.60;;;19.80;60.90;;;;;;5003330;28;114622;-78
2023/08/06 10:48:40;;;;;;;3.05;1.67;;;19.80;60.80;;;;;;5005612;28;114004;-77
2023/08/06 10:51:11;;;;;;;2.90;1.52;;;19.90;60.60;;;;;;4987513;28;114424;-78
2023/08/06 10:53:42;;;;;;;2.22;1.27;;;19.80;60.30;;;;;;5005025;28;114862;-78
2023/08/06 10:56:22;;;;;;;3.03;1.38;;;19.80;60.50;;;;;;5004056;28;114923;-78
2023/08/06 10:58:51;;;;;;;4.45;1.90;;;19.70;60.90;;;;;;5004572;28;114879;-78
2023/08/06 11:01:18;;;;;;;2.55;1.25;;;19.60;61.00;;;;;;5007945;28;114208;-78
2023/08/06 11:03:46;;;;;;;3.90;2.08;;;19.60;61.00;;;;;;5007245;28;114944;-78
2023/08/06 11:06:18;;;;;;;3.67;1.50;;;19.70;61.10;;;;;;4990164;28;117278;-78
2023/08/06 11:08:50;;;;;;;3.72;1.98;;;19.70;61.00;;;;;;5007818;28;114383;-78
2023/08/06 11:11:18;;;;;;;3.17;1.73;;;19.70;61.10;;;;;;5007788;28;114412;-78
2023/08/06 11:13:49;;;;;;;3.80;2.03;;;19.70;61.10;;;;;;4990107;28;115488;-78
2023/08/06 11:16:26;;;;;;;3.22;2.08;;;19.80;60.90;;;;;;5006503;28;114702;-79
2023/08/06 11:18:54;;;;;;;3.90;2.00;;;19.80;60.70;;;;;;5007613;28;114334;-77
2023/08/06 11:21:21;;;;;;;3.75;1.92;;;19.80;60.70;;;;;;5007938;28;114273;-78
2023/08/06 11:23:49;;;;;;;3.83;1.90;;;19.90;60.60;;;;;;5007415;28;115100;-78
2023/08/06 11:26:20;;;;;;;3.35;1.40;;;20.00;60.50;;;;;;5006235;28;114844;-79
2023/08/06 11:28:47;;;;;;;3.50;2.05;;;20.00;60.40;;;;;;5007477;28;114172;-79
2023/08/06 11:31:23;;;;;;;3.92;1.73;;;19.90;60.30;;;;;;5008301;28;114316;-78
2023/08/06 11:33:54;;;;;;;3.90;1.90;;;19.90;60.40;;;;;;5006009;28;114934;-79
2023/08/06 11:36:34;;;;;;;4.25;2.20;;;19.80;60.50;;;;;;5007103;28;114780;-78
2023/08/06 11:39:02;;;;;;;3.20;1.50;;;19.90;60.40;;;;;;5007036;28;114360;-77
2023/08/06 11:41:30;;;;;;;3.13;1.42;;;19.80;60.50;;;;;;5006931;28;114455;-79
2023/08/06 11:44:00;;;;;;;3.05;1.67;;;19.80;60.50;;;;;;5005491;28;115258;-78
2023/08/06 11:46:27;;;;;;;2.53;1.48;;;19.80;60.50;;;;;;5006057;28;116086;-78
2023/08/06 11:48:58;;;;;;;2.78;1.35;;;19.80;60.50;;;;;;4990271;28;114678;-77
2023/08/06 11:51:26;;;;;;;4.60;2.25;;;19.80;60.50;;;;;;5006650;28;114345;-79
2023/08/06 11:53:59;;;;;;;3.72;1.77;;;19.80;60.70;;;;;;4988603;28;114962;-77
2023/08/06 11:56:26;;;;;;;2.28;1.40;;;19.90;60.60;;;;;;5005527;28;115925;-77
2023/08/06 11:58:56;;;;;;;4.35;1.95;;;19.80;60.60;;;;;;5006481;28;114594;-79
2023/08/06 12:01:24;;;;;;;2.47;1.30;;;19.90;60.60;;;;;;5007132;28;114697;-78
2023/08/06 12:03:51;;;;;;;2.83;1.60;;;19.90;60.80;;;;;;5004929;28;114853;-79
2023/08/06 12:06:18;;;;;;;2.55;1.23;;;19.90;60.50;;;;;;5006638;28;115885;-79
2023/08/06 12:08:46;;;;;;;2.70;1.38;;;19.90;60.40;;;;;;5006177;28;114255;-78
2023/08/06 12:11:13;;;;;;;1.80;1.05;;;19.90;60.30;;;;;;5007538;28;114331;-78
2023/08/06 12:13:40;;;;;;;3.42;1.58;;;19.90;60.60;;;;;;4988636;28;117149;-78
2023/08/06 12:16:07;;;;;;;2.20;1.08;;;19.90;60.50;;;;;;5005402;28;114724;-78
2023/08/06 12:18:34;;;;;;;3.05;1.60;;;19.80;60.60;;;;;;5007069;28;114404;-78
2023/08/06 12:21:01;;;;;;;2.83;1.50;;;19.90;60.50;;;;;;5007651;28;114233;-78
2023/08/06 12:23:29;;;;;;;2.95;1.52;;;19.90;60.50;;;;;;5005520;28;114931;-78
2023/08/06 12:25:57;;;;;;;2.90;1.40;;;19.90;60.60;;;;;;5005510;28;114546;-78
2023/08/06 12:28:24;;;;;;;3.40;1.40;;;20.00;60.40;;;;;;5006266;28;114407;-78
2023/08/06 12:30:54;;;;;;;2.67;1.63;;;20.00;60.30;;;;;;5006306;28;114123;-78
2023/08/06 12:33:21;;;;;;;2.97;1.73;;;20.00;60.20;;;;;;5005558;28;115205;-78
2023/08/06 12:35:48;;;;;;;3.33;1.60;;;20.10;60.20;;;;;;5006770;28;114844;-78
2023/08/06 12:38:15;;;;;;;3.05;1.60;;;20.10;60.10;;;;;;5007235;28;114155;-78
2023/08/06 12:40:42;;;;;;;3.17;1.40;;;20.10;60.10;;;;;;5006244;28;114207;-79
2023/08/06 12:43:10;;;;;;;2.58;1.42;;;20.20;60.30;;;;;;5005665;28;114901;-79